Linwood, Wisconsin
Current Conditions -  °F | °C
As of 10:35 AM on Saturday 22 Nov 2014 (Local Time) from KSTE Reporting Station
Moderate Fog Moderate Fog  
Wind Chill: 26°   Ceiling: 300
Heat Index: 32°   Visibility: 0.25mi
Dew Point: 32°   Wind: 7mph
Humidity: 100%   Direction: 180°S
Pressure: 29.81"   Gusts: NA
Location:  44.5531°N, 89.5186°W
Report Text: KSTE 221635Z AUTO 18006KT 1/4SM FG OVC003 00/00 A2981 RMK AO2 T00000000
Loading
Personal Weather Stations






























Interactive Weather Map New forecast layout! Learn more

10-Day Weather Forecast

Advertisements
Track Severe Weather on mobile